Time;durP1;ratioP1;P1;durP2;ratioP2;P2;SDS_P1;SDS_P2;PMS_P1;PMS_P2;Temp;Humidity;BMP_temperature;BMP_pressure;BME280_temperature;BME280_humidity;BME280_pressure;Samples;Min_cycle;Max_cycle;Signal;HPM_P1;HPM_P2
2023/04/26 00:01:21;;;;;;;6.27;3.47;;;;;;;6.77;95.19;99521.16;1431753;91;21566;-80
2023/04/26 00:03:47;;;;;;;8.20;4.17;;;;;;;6.78;95.03;99521.49;1435416;91;21453;-81
2023/04/26 00:06:15;;;;;;;5.17;3.50;;;;;;;6.77;94.89;99522.48;1435144;91;22280;-82
2023/04/26 00:08:42;;;;;;;7.37;4.07;;;;;;;6.75;94.87;99524.42;1435097;91;21503;-81
2023/04/26 00:11:08;;;;;;;7.73;4.57;;;;;;;6.75;94.99;99528.36;1418732;91;21451;-80
2023/04/26 00:13:35;;;;;;;10.57;5.27;;;;;;;6.73;94.80;99525.07;1418248;91;21459;-80
2023/04/26 00:16:02;;;;;;;4.53;3.73;;;;;;;6.73;94.83;99528.16;1436653;91;21370;-80
2023/04/26 00:18:28;;;;;;;6.10;4.37;;;;;;;6.71;94.83;99528.32;1420326;91;21393;-80
2023/04/26 00:20:55;;;;;;;6.83;4.93;;;;;;;6.73;94.75;99534.27;1416523;91;22347;-79
2023/04/26 00:23:21;;;;;;;6.67;4.20;;;;;;;6.71;94.89;99534.89;1438756;91;22308;-80
2023/04/26 00:25:47;;;;;;;13.93;4.97;;;;;;;6.72;94.60;99539.17;1432821;91;21422;-79
2023/04/26 00:28:14;;;;;;;8.93;4.47;;;;;;;6.70;94.70;99540.28;1435002;91;21563;-78
2023/04/26 00:30:46;;;;;;;9.77;5.27;;;;;;;6.67;94.65;99540.08;1433758;91;22251;-79
2023/04/26 00:33:09;;;;;;;7.80;4.33;;;;;;;6.66;94.61;99541.56;1428541;91;21437;-78
2023/04/26 00:35:36;;;;;;;7.43;4.93;;;;;;;6.67;94.60;99544.52;1429786;91;21384;-79
2023/04/26 00:38:03;;;;;;;7.77;4.60;;;;;;;6.68;94.17;99543.08;1432423;91;21453;-80
2023/04/26 00:40:30;;;;;;;5.57;3.87;;;;;;;6.68;94.14;99541.77;1431818;91;22465;-80
2023/04/26 00:42:58;;;;;;;9.67;5.67;;;;;;;6.72;94.00;99547.06;1366391;91;21186;-80
2023/04/26 00:45:24;;;;;;;8.07;4.77;;;;;;;6.72;93.94;99542.30;1513806;91;21338;-80
2023/04/26 00:47:51;;;;;;;12.77;5.43;;;;;;;6.71;93.78;99545.41;1347597;92;21261;-81
2023/04/26 00:50:18;;;;;;;6.30;3.90;;;;;;;6.71;93.86;99550.67;1367585;91;22103;-80
2023/04/26 00:52:46;;;;;;;6.07;4.00;;;;;;;6.65;94.29;99545.99;1365373;91;21438;-79
2023/04/26 00:55:13;;;;;;;6.90;5.13;;;;;;;6.62;94.40;99548.91;1384119;91;21370;-80
2023/04/26 00:57:40;;;;;;;10.73;4.63;;;;;;;6.61;94.44;99548.55;1403600;91;21392;-81
2023/04/26 01:00:08;;;;;;;6.63;4.73;;;;;;;6.60;94.64;99552.66;1434964;91;22382;-82
2023/04/26 01:02:34;;;;;;;5.73;4.40;;;;;;;6.58;94.88;99549.33;1433436;91;21319;-81
2023/04/26 01:05:00;;;;;;;8.67;4.20;;;;;;;6.60;94.83;99554.79;1430668;91;21415;-79
2023/04/26 01:07:27;;;;;;;7.57;5.00;;;;;;;6.59;94.88;99556.23;1431489;91;21327;-80
2023/04/26 01:09:54;;;;;;;5.00;4.40;;;;;;;6.54;95.00;99554.88;1437192;91;21577;-80
2023/04/26 01:12:23;;;;;;;8.73;5.10;;;;;;;6.52;95.24;99553.36;1427587;91;22251;-80
2023/04/26 01:14:50;;;;;;;11.20;5.20;;;;;;;6.54;95.13;99554.05;1439307;91;21341;-79
2023/04/26 01:17:17;;;;;;;8.80;5.37;;;;;;;6.51;95.25;99550.39;1434797;91;21555;-80
2023/04/26 01:19:48;;;;;;;9.80;5.53;;;;;;;6.49;95.22;99558.41;1435770;91;22354;-79
2023/04/26 01:22:14;;;;;;;;;;;;;;;6.51;95.21;99557.80;1360935;91;21253;-79
2023/04/26 01:24:42;;;;;;;8.03;5.13;;;;;;;6.51;95.64;99556.97;1366859;91;20314;-79
2023/04/26 01:27:09;;;;;;;7.00;5.20;;;;;;;6.50;95.59;99566.66;1357871;91;21313;-78
2023/04/26 01:29:35;;;;;;;8.63;5.13;;;;;;;6.48;95.61;99559.89;1361650;91;21276;-79
2023/04/26 01:32:01;;;;;;;6.77;4.77;;;;;;;6.47;95.55;99564.78;1360685;91;21397;-78
2023/04/26 01:34:27;;;;;;;8.73;4.70;;;;;;;6.48;95.79;99563.83;1360903;91;22177;-78
2023/04/26 01:36:54;;;;;;;7.13;5.20;;;;;;;6.49;95.54;99561.53;1361426;91;21417;-77
2023/04/26 01:39:21;;;;;;;9.50;5.13;;;;;;;6.50;95.75;99564.03;1366500;91;22104;-76
2023/04/26 01:41:47;;;;;;;6.27;4.53;;;;;;;6.55;95.60;99562.27;1512377;91;21364;-79
2023/04/26 01:44:13;;;;;;;8.60;5.03;;;;;;;6.56;95.76;99563.95;1360910;91;22244;-79
2023/04/26 01:46:39;;;;;;;6.87;4.83;;;;;;;6.56;96.01;99562.64;1361428;91;21320;-79
2023/04/26 01:49:06;;;;;;;9.97;5.40;;;;;;;6.55;95.86;99562.27;1360966;91;21393;-79
2023/04/26 01:51:33;;;;;;;10.83;5.73;;;;;;;6.52;95.58;99572.58;1398202;91;22891;-79
2023/04/26 01:53:59;;;;;;;11.10;5.07;;;;;;;6.52;95.86;99567.81;1437213;91;22326;-79
2023/04/26 01:56:26;;;;;;;13.17;6.40;;;;;;;6.53;95.37;99560.27;1433310;91;22436;-80
2023/04/26 01:58:55;;;;;;;6.20;3.90;;;;;;;6.56;95.79;99561.32;1441617;91;21380;-79
2023/04/26 02:01:20;;;;;;;10.53;5.37;;;;;;;6.58;95.70;99558.04;1436450;91;21430;-80
2023/04/26 02:03:48;;;;;;;6.07;5.13;;;;;;;6.60;95.69;99567.11;1435164;91;21391;-79
2023/04/26 02:06:14;;;;;;;7.37;5.57;;;;;;;6.62;95.36;99563.38;1435177;91;22429;-79
2023/04/26 02:08:40;;;;;;;9.67;5.47;;;;;;;6.60;95.40;99554.79;1432205;91;21408;-80
2023/04/26 02:11:07;;;;;;;11.60;5.47;;;;;;;6.59;95.12;99556.23;1432677;91;21460;-79
2023/04/26 02:13:33;;;;;;;14.43;6.97;;;;;;;6.56;95.82;99563.95;1416688;91;22318;-79
2023/04/26 02:15:59;;;;;;;10.73;6.40;;;;;;;6.54;95.81;99560.13;1430397;91;21444;-80
2023/04/26 02:18:25;;;;;;;10.83;5.57;;;;;;;6.51;95.71;99564.36;1434898;91;21452;-79
2023/04/26 02:20:51;;;;;;;5.57;4.60;;;;;;;6.51;95.73;99568.80;1436965;91;22295;-79
2023/04/26 02:23:18;;;;;;;9.70;5.17;;;;;;;6.52;95.81;99571.76;1415666;91;21607;-81
2023/04/26 02:25:48;;;;;;;7.37;4.70;;;;;;;6.52;96.06;99578.33;1438965;91;21363;-80
2023/04/26 02:28:15;;;;;;;21.05;11.25;;;;;;;6.52;95.99;99582.27;1425320;91;21541;-80
2023/04/26 02:30:42;;;;;;;42.33;21.77;;;;;;;6.48;96.56;99587.48;1430522;91;21653;-79
2023/04/26 02:33:08;;;;;;;26.50;15.17;;;;;;;6.41;96.06;99579.80;1425223;91;21363;-80
2023/04/26 02:35:38;;;;;;;28.47;15.37;;;;;;;6.35;96.75;99580.38;1429250;91;22300;-80
2023/04/26 02:38:04;;;;;;;24.20;13.37;;;;;;;6.28;97.32;99587.52;1364266;91;21380;-80
2023/04/26 02:40:31;;;;;;;15.93;8.90;;;;;;;6.24;97.04;99587.92;1447486;91;21430;-79
2023/04/26 02:42:57;;;;;;;11.57;6.77;;;;;;;6.20;97.33;99587.38;1361997;91;21268;-79
2023/04/26 02:45:23;;;;;;;8.33;5.03;;;;;;;6.19;97.66;99588.84;1370052;91;21364;-79
2023/04/26 02:47:49;;;;;;;8.47;5.60;;;;;;;6.18;97.27;99589.31;1362077;91;21409;-79
2023/04/26 02:50:16;;;;;;;11.67;5.57;;;;;;;6.20;97.22;99588.69;1362201;91;21275;-80
2023/04/26 02:52:42;;;;;;;7.80;5.73;;;;;;;6.18;97.68;99587.99;1367908;91;21503;-79
2023/04/26 02:55:08;;;;;;;12.97;5.97;;;;;;;6.18;97.75;99595.05;1362415;91;21267;-79
2023/04/26 02:57:35;;;;;;;8.70;6.23;;;;;;;6.17;97.47;99591.60;1361558;91;22015;-79
2023/04/26 03:00:04;;;;;;;7.73;6.47;;;;;;;6.17;97.83;99596.86;1397403;91;21311;-79
2023/04/26 03:02:30;;;;;;;8.50;5.97;;;;;;;6.15;98.20;99594.02;1437509;91;22170;-79
2023/04/26 03:04:56;;;;;;;10.53;6.03;;;;;;;6.15;98.85;99604.04;1429515;91;21423;-78
2023/04/26 03:07:22;;;;;;;7.17;5.23;;;;;;;6.15;99.25;99592.22;1429829;91;21393;-79
2023/04/26 03:09:48;;;;;;;11.93;5.60;;;;;;;6.19;99.45;99600.19;1416340;91;22104;-79
2023/04/26 03:12:14;;;;;;;8.20;6.60;;;;;;;6.24;99.36;99591.86;1436667;91;21371;-79
2023/04/26 03:14:40;;;;;;;10.53;6.93;;;;;;;6.28;99.17;99588.83;1433919;91;21548;-79
2023/04/26 03:17:07;;;;;;;7.83;6.30;;;;;;;6.37;99.08;99586.33;1435479;91;21401;-78
2023/04/26 03:19:33;;;;;;;9.30;6.30;;;;;;;6.44;98.98;99590.86;1431978;91;21533;-79
2023/04/26 03:22:00;;;;;;;9.30;7.10;;;;;;;6.48;98.73;99589.63;1415048;91;21526;-78
2023/04/26 03:24:26;;;;;;;10.63;7.60;;;;;;;6.49;98.51;99593.08;1433053;91;21430;-79
2023/04/26 03:26:52;;;;;;;8.80;6.70;;;;;;;6.48;98.07;99607.20;1436081;91;22877;-78
2023/04/26 03:29:18;;;;;;;11.00;6.97;;;;;;;6.47;97.63;99609.47;1427865;91;21966;-79
2023/04/26 03:31:44;;;;;;;20.03;6.20;;;;;;;6.48;97.48;99619.03;1429152;91;21378;-79
2023/04/26 03:34:11;;;;;;;10.93;5.93;;;;;;;6.50;97.48;99624.50;1430419;91;21400;-79
2023/04/26 03:36:37;;;;;;;8.67;5.87;;;;;;;6.53;97.38;99625.98;1434075;91;21562;-79
2023/04/26 03:39:05;;;;;;;8.33;5.90;;;;;;;6.55;97.33;99633.26;1360743;91;21283;-79
2023/04/26 03:41:32;;;;;;;12.50;5.33;;;;;;;6.57;97.38;99626.55;1361764;91;21327;-79
2023/04/26 03:43:58;;;;;;;7.30;5.93;;;;;;;6.55;97.48;99634.57;1382668;91;21415;-80
2023/04/26 03:46:24;;;;;;;12.27;7.10;;;;;;;6.49;97.56;99635.14;1432070;91;21341;-80
2023/04/26 03:48:50;;;;;;;13.20;7.20;;;;;;;6.44;98.35;99642.12;1429339;91;22317;-79
2023/04/26 03:51:16;;;;;;;12.80;8.43;;;;;;;6.39;98.21;99638.25;1424584;91;21444;-80
2023/04/26 03:53:45;;;;;;;14.27;8.77;;;;;;;6.33;98.14;99641.80;1437916;91;21592;-79
2023/04/26 03:56:11;;;;;;;14.77;8.80;;;;;;;6.31;98.39;99645.05;1461076;89;21399;-80
2023/04/26 03:58:37;;;;;;;12.77;7.57;;;;;;;6.31;98.71;99646.85;1454154;89;21377;-80
2023/04/26 04:01:04;;;;;;;12.20;7.60;;;;;;;6.32;98.47;99658.52;1430329;89;21597;-79
2023/04/26 04:03:30;;;;;;;11.37;8.47;;;;;;;6.32;98.65;99653.75;1459678;89;22308;-79
2023/04/26 04:05:56;;;;;;;13.60;7.57;;;;;;;6.35;98.56;99654.79;1455959;89;21428;-79
2023/04/26 04:08:22;;;;;;;11.40;6.57;;;;;;;6.38;98.31;99658.45;1440488;89;21436;-79
2023/04/26 04:10:49;;;;;;;8.23;5.73;;;;;;;6.41;98.05;99661.29;1453295;89;21399;-79
2023/04/26 04:13:15;;;;;;;18.97;11.67;;;;;;;6.39;98.46;99664.53;1464066;89;21936;-79
2023/04/26 04:15:41;;;;;;;19.13;12.13;;;;;;;6.34;97.60;99672.85;1455396;89;21678;-79
2023/04/26 04:18:08;;;;;;;17.63;12.40;;;;;;;6.29;96.96;99679.83;1461930;89;22802;-77
2023/04/26 04:20:34;;;;;;;16.33;11.50;;;;;;;6.30;96.95;99678.88;1463492;89;21502;-84
2023/04/26 04:23:03;;;;;;;19.47;12.67;;;;;;;6.34;96.89;99679.42;1455761;89;22070;-80
2023/04/26 04:25:28;;;;;;;22.37;11.80;;;;;;;6.37;96.60;99680.45;1456462;89;21405;-82
2023/04/26 04:27:54;;;;;;;15.43;10.33;;;;;;;6.45;96.33;99690.28;1449362;89;21383;-83
2023/04/26 04:30:21;;;;;;;17.27;10.20;;;;;;;6.48;94.93;99686.06;1463217;89;22323;-81
2023/04/26 04:32:47;;;;;;;13.13;9.20;;;;;;;6.55;95.27;99687.15;1459103;89;22443;-83
2023/04/26 04:35:13;;;;;;;14.97;8.77;;;;;;;6.58;94.56;99686.87;1460796;89;21384;-82
2023/04/26 04:37:40;;;;;;;14.10;8.27;;;;;;;6.63;94.71;99691.23;1451692;89;21420;-82
2023/04/26 04:40:12;;;;;;;16.10;8.23;;;;;;;6.66;93.21;99700.64;1451615;89;22537;-81
2023/04/26 04:42:38;;;;;;;15.70;9.93;;;;;;;6.73;93.17;99701.27;1464836;89;22428;-82
2023/04/26 04:45:05;;;;;;;14.33;9.30;;;;;;;6.82;93.26;99702.68;1426094;89;21369;-81
2023/04/26 04:47:32;;;;;;;16.23;7.57;;;;;;;6.87;93.29;99705.23;1466682;89;21575;-81
2023/04/26 04:49:59;;;;;;;13.20;8.30;;;;;;;6.93;92.60;99708.64;1456798;89;21384;-80
2023/04/26 04:52:25;;;;;;;13.10;7.13;;;;;;;6.99;92.39;99705.90;1462149;89;21384;-82
2023/04/26 04:54:52;;;;;;;11.40;7.33;;;;;;;7.06;92.85;99704.37;1456398;89;21377;-81
2023/04/26 04:57:18;;;;;;;12.83;7.60;;;;;;;7.10;91.74;99706.22;1454673;89;21620;-81
2023/04/26 04:59:44;;;;;;;11.97;7.83;;;;;;;7.11;91.72;99702.64;1454029;89;22316;-81
2023/04/26 05:02:10;;;;;;;10.43;7.33;;;;;;;7.15;92.23;99703.52;1454365;89;21494;-82
2023/04/26 05:04:36;;;;;;;10.93;7.77;;;;;;;7.23;92.44;99710.70;1459277;89;21414;-82
2023/04/26 05:07:02;;;;;;;13.73;6.57;;;;;;;7.29;91.91;99708.80;1439301;89;22301;-82
2023/04/26 05:09:28;;;;;;;8.90;6.47;;;;;;;7.36;91.48;99718.27;1459267;89;21444;-81
2023/04/26 05:11:55;;;;;;;13.77;6.90;;;;;;;7.41;90.72;99718.66;1458273;89;21442;-81
2023/04/26 05:14:21;;;;;;;13.37;8.67;;;;;;;7.47;90.74;99725.98;1453005;89;21429;-80
2023/04/26 05:16:47;;;;;;;11.60;8.10;;;;;;;7.49;90.06;99729.31;1455324;89;21332;-81
2023/04/26 05:19:14;;;;;;;11.97;6.90;;;;;;;7.54;90.07;99738.92;1443320;89;21429;-81
2023/04/26 05:21:40;;;;;;;12.27;7.83;;;;;;;7.63;90.44;99735.42;1453056;89;21487;-80
2023/04/26 05:24:06;;;;;;;11.13;6.63;;;;;;;7.76;90.88;99733.75;1455713;89;21392;-80
2023/04/26 05:26:34;;;;;;;7.30;5.40;;;;;;;7.92;91.46;99731.81;1460536;89;21539;-82
2023/04/26 05:29:01;;;;;;;13.20;6.60;;;;;;;7.95;87.25;99738.09;1458656;89;21370;-81
2023/04/26 05:31:27;;;;;;;8.93;6.43;;;;;;;8.04;88.12;99734.57;1460487;89;22376;-79
2023/04/26 05:33:53;;;;;;;10.47;6.70;;;;;;;8.14;87.43;99743.27;1462781;89;21384;-79
2023/04/26 05:36:20;;;;;;;9.87;5.63;;;;;;;8.21;86.75;99744.80;1456242;89;21450;-79
2023/04/26 05:38:47;;;;;;;12.63;6.03;;;;;;;8.28;86.12;99741.07;1458575;89;22448;-78
2023/04/26 05:41:14;;;;;;;7.43;5.87;;;;;;;8.43;85.22;99740.94;1381840;89;21318;-79
2023/04/26 05:43:40;;;;;;;10.83;6.63;;;;;;;8.54;85.18;99746.45;1447576;89;21683;-79
2023/04/26 05:46:06;;;;;;;15.83;7.00;;;;;;;8.63;84.66;99748.68;1461980;89;21624;-79
2023/04/26 05:48:33;;;;;;;14.50;7.07;;;;;;;8.63;83.13;99744.72;1458389;89;21421;-79
2023/04/26 05:50:59;;;;;;;11.87;6.40;;;;;;;8.77;83.25;99752.09;1449970;89;21583;-79
2023/04/26 05:57:15;;;;;;;11.37;5.97;;;;;;;8.98;82.62;99751.30;1469779;90;21430;-78
2023/04/26 05:59:41;;;;;;;10.20;6.10;;;;;;;9.16;81.71;99750.42;1367912;90;21319;-79
2023/04/26 06:02:07;;;;;;;7.20;5.50;;;;;;;9.25;81.98;99754.77;1370713;104;21186;-79
2023/04/26 06:04:34;;;;;;;11.43;4.97;;;;;;;9.29;81.31;99762.70;1375395;90;22245;-79
2023/04/26 06:07:00;;;;;;;11.93;5.80;;;;;;;9.15;78.59;99759.31;1374190;89;21379;-79
2023/04/26 06:09:26;;;;;;;12.67;6.00;;;;;;;9.35;81.08;99758.61;1374908;89;22243;-79
2023/04/26 06:11:52;;;;;;;7.77;5.73;;;;;;;9.44;80.37;99770.41;1381257;90;21598;-79
2023/04/26 06:14:18;;;;;;;16.53;7.17;;;;;;;9.47;77.71;99763.49;1530163;90;21208;-79
2023/04/26 06:16:44;;;;;;;9.57;5.63;;;;;;;9.53;77.78;99767.32;1375664;90;22059;-79
2023/04/26 06:19:11;;;;;;;11.07;5.20;;;;;;;9.59;77.55;99775.11;1375599;90;21341;-80
2023/04/26 06:21:37;;;;;;;11.00;5.63;;;;;;;9.66;75.09;99780.09;1375745;90;21436;-79
2023/04/26 06:24:03;;;;;;;11.40;5.73;;;;;;;9.80;77.06;99778.17;1430006;90;22324;-79
2023/04/26 06:26:31;;;;;;;13.90;5.40;;;;;;;9.79;76.79;99780.49;1448685;90;21430;-79
2023/04/26 06:28:57;;;;;;;9.87;5.63;;;;;;;9.88;75.95;99787.97;1449125;90;21325;-80
2023/04/26 06:31:23;;;;;;;9.87;4.77;;;;;;;9.81;73.24;99789.10;1442328;90;21519;-78
2023/04/26 06:33:49;;;;;;;9.30;5.00;;;;;;;9.80;73.33;99792.70;1444478;89;22272;-79
2023/04/26 06:36:15;;;;;;;5.97;3.87;;;;;;;9.89;73.96;99790.93;1445675;89;21501;-79
2023/04/26 06:38:42;;;;;;;7.20;4.97;;;;;;;9.86;73.50;99792.07;1448831;89;22391;-80
2023/04/26 06:41:08;;;;;;;17.07;6.87;;;;;;;9.87;74.19;99795.07;1449808;90;21481;-80
2023/04/26 06:43:34;;;;;;;6.93;4.40;;;;;;;9.90;73.46;99792.61;1445889;90;21429;-80
2023/04/26 06:46:00;;;;;;;9.50;4.30;;;;;;;9.98;74.08;99789.97;1447729;90;22300;-80
2023/04/26 06:48:27;;;;;;;7.70;4.13;;;;;;;9.96;71.33;99797.76;1446551;89;21458;-80
2023/04/26 06:50:53;;;;;;;7.33;4.00;;;;;;;10.01;71.64;99796.77;1449649;89;22011;-79
2023/04/26 06:53:19;;;;;;;12.77;4.97;;;;;;;10.09;71.84;99798.12;1445616;90;22197;-78
2023/04/26 06:55:45;;;;;;;15.00;5.27;;;;;;;9.92;69.02;99791.44;1447630;90;21347;-77
2023/04/26 06:58:12;;;;;;;10.47;3.80;;;;;;;9.95;70.01;99798.22;1441124;89;21465;-79
2023/04/26 07:00:38;;;;;;;11.57;5.63;;;;;;;9.92;67.46;99798.05;1449656;89;21436;-80
2023/04/26 07:03:04;;;;;;;13.37;4.40;;;;;;;10.01;67.69;99802.91;1451261;89;21458;-79
2023/04/26 07:05:30;;;;;;;13.57;4.47;;;;;;;10.13;65.76;99804.27;1449572;89;21399;-80
2023/04/26 07:07:56;;;;;;;9.53;3.73;;;;;;;10.32;66.82;99803.18;1450084;90;21363;-80
2023/04/26 07:10:23;;;;;;;7.00;3.80;;;;;;;10.49;66.90;99803.23;1444347;90;21399;-80
2023/04/26 07:12:49;;;;;;;8.10;3.77;;;;;;;10.52;65.82;99806.38;1446449;90;22198;-80
2023/04/26 07:15:16;;;;;;;14.43;4.83;;;;;;;10.69;67.32;99809.05;1447762;89;21529;-79
2023/04/26 07:17:42;;;;;;;9.77;3.57;;;;;;;10.73;66.28;99809.91;1448153;90;21453;-80
2023/04/26 07:20:09;;;;;;;10.10;4.57;;;;;;;10.86;65.58;99809.91;1445979;90;21488;-80
2023/04/26 07:22:35;;;;;;;9.43;4.47;;;;;;;10.86;64.22;99813.38;1444896;90;21948;-79
2023/04/26 07:25:03;;;;;;;14.77;5.27;;;;;;;10.69;66.14;99824.44;1445024;89;21429;-80
2023/04/26 07:27:30;;;;;;;13.23;3.70;;;;;;;10.75;65.85;99832.22;1453695;89;22229;-80
2023/04/26 07:29:56;;;;;;;8.97;3.93;;;;;;;10.80;65.21;99836.03;1444318;89;21534;-80
2023/04/26 07:32:22;;;;;;;11.17;3.60;;;;;;;10.76;63.86;99830.75;1454895;89;22256;-80
2023/04/26 07:34:48;;;;;;;10.90;4.13;;;;;;;10.76;64.14;99836.52;1445953;89;21538;-79
2023/04/26 07:37:15;;;;;;;17.33;8.03;;;;;;;10.78;62.67;99840.66;1446002;89;21364;-79
2023/04/26 07:39:41;;;;;;;13.20;3.23;;;;;;;11.06;63.55;99838.53;1445668;90;22390;-81
2023/04/26 07:42:09;;;;;;;13.37;4.33;;;;;;;11.06;60.36;99844.33;1448783;89;21473;-80
2023/04/26 07:44:41;;;;;;;8.87;3.50;;;;;;;10.96;59.59;99854.24;1439150;90;21548;-80
2023/04/26 07:47:14;;;;;;;21.50;9.00;;;;;;;10.83;59.00;99862.17;1447736;90;21458;-80
2023/04/26 07:49:41;;;;;;;12.17;3.93;;;;;;;10.79;58.50;99863.51;1445510;90;21349;-80
2023/04/26 07:52:08;;;;;;;11.23;3.00;;;;;;;10.69;57.28;99865.95;1448050;89;21406;-80
2023/04/26 07:54:34;;;;;;;8.50;3.53;;;;;;;10.46;57.05;99864.41;1446276;90;21451;-80
2023/04/26 07:57:00;;;;;;;8.37;3.57;;;;;;;10.54;57.07;99867.08;1449377;89;21487;-79
2023/04/26 07:59:27;;;;;;;11.20;3.23;;;;;;;10.40;56.60;99867.20;1453650;89;21563;-80
2023/04/26 08:01:53;;;;;;;8.43;3.13;;;;;;;10.43;55.41;99860.26;1453351;90;21548;-81
2023/04/26 08:04:25;;;;;;;8.20;2.80;;;;;;;10.59;56.85;99868.26;1451308;90;21451;-79
2023/04/26 08:06:51;;;;;;;7.20;3.67;;;;;;;10.61;55.71;99873.37;1374459;90;21444;-81
2023/04/26 08:09:17;;;;;;;8.00;2.60;;;;;;;10.68;56.94;99874.89;1378703;90;21410;-80
2023/04/26 08:11:43;;;;;;;6.53;2.53;;;;;;;10.78;54.82;99872.92;1378812;90;22139;-79
2023/04/26 08:14:10;;;;;;;9.97;3.23;;;;;;;11.02;57.81;99876.95;1414573;89;21392;-79
2023/04/26 08:16:36;;;;;;;7.17;2.53;;;;;;;10.95;54.40;99875.10;1458896;90;22418;-79
2023/04/26 08:19:03;;;;;;;13.47;2.93;;;;;;;10.90;53.86;99878.73;1447854;90;21927;-79
2023/04/26 08:21:29;;;;;;;6.63;3.40;;;;;;;11.08;56.21;99887.37;1454266;90;21428;-79
2023/04/26 08:23:56;;;;;;;12.13;4.27;;;;;;;10.91;51.60;99881.73;1457714;90;21546;-79
2023/04/26 08:26:22;;;;;;;9.13;3.37;;;;;;;11.18;56.07;99883.23;1451257;90;21377;-79
2023/04/26 08:28:49;;;;;;;3.60;2.17;;;;;;;11.33;53.46;99884.23;1450811;90;22226;-80
2023/04/26 08:31:15;;;;;;;8.63;2.63;;;;;;;11.32;53.18;99886.55;1442747;89;21883;-80
2023/04/26 08:33:41;;;;;;;7.03;2.80;;;;;;;11.32;53.71;99889.70;1446520;90;21362;-79
2023/04/26 08:36:08;;;;;;;13.93;3.00;;;;;;;11.19;52.00;99892.83;1451085;89;21400;-80
2023/04/26 08:38:35;;;;;;;7.13;2.80;;;;;;;11.07;52.85;99898.95;1455140;90;21554;-79
2023/04/26 08:41:03;;;;;;;13.27;3.97;;;;;;;11.19;54.43;99892.36;1449952;90;21450;-80
2023/04/26 08:43:29;;;;;;;9.40;2.60;;;;;;;11.13;52.07;99887.69;1433569;90;21499;-80
2023/04/26 08:45:59;;;;;;;17.83;3.60;;;;;;;11.31;53.08;99886.23;1447610;90;21399;-80
2023/04/26 08:48:29;;;;;;;6.53;2.23;;;;;;;11.34;51.15;99895.67;1375033;90;21349;-79
2023/04/26 08:50:55;;;;;;;4.50;1.70;;;;;;;11.48;53.16;99895.02;1517543;90;21303;-80
2023/04/26 08:53:22;;;;;;;7.00;2.87;;;;;;;11.62;52.56;99898.28;1533999;90;21134;-80
2023/04/26 08:55:49;;;;;;;7.90;2.00;;;;;;;11.58;51.33;99893.00;1377960;90;21466;-79
2023/04/26 08:58:17;;;;;;;11.67;3.27;;;;;;;11.39;49.28;99898.63;1381819;90;21370;-79
2023/04/26 09:00:45;;;;;;;9.63;2.93;;;;;;;11.81;51.79;99902.41;1373257;90;22272;-79
2023/04/26 09:03:11;;;;;;;7.47;2.67;;;;;;;12.00;51.36;99905.24;1380117;90;21304;-78
2023/04/26 09:05:42;;;;;;;7.93;2.00;;;;;;;12.03;49.98;99908.87;1525746;89;22255;-80
2023/04/26 09:08:08;;;;;;;5.75;2.62;;;;;;;11.75;48.29;99907.89;1525059;90;21379;-80
2023/04/26 09:10:34;;;;;;;8.67;3.20;;;;;;;11.89;49.04;99910.89;1374916;90;21401;-79
2023/04/26 09:13:00;;;;;;;16.00;3.87;;;;;;;12.05;48.38;99910.84;1381296;89;21334;-80
2023/04/26 09:15:27;;;;;;;8.57;2.83;;;;;;;11.94;49.32;99909.39;1530107;90;21349;-79
2023/04/26 09:17:53;;;;;;;6.93;2.50;;;;;;;12.03;48.17;99907.55;1449497;89;21727;-79
2023/04/26 09:20:26;;;;;;;4.80;3.20;;;;;;;12.02;50.39;99913.83;1443967;90;22449;-80
2023/04/26 09:23:07;;;;;;;10.47;2.47;;;;;;;12.05;47.75;99911.34;1370803;90;21458;-79
2023/04/26 09:25:34;;;;;;;;;;;;;;;12.09;48.13;99916.16;1374358;90;21282;-80
2023/04/26 09:28:02;;;;;;;8.47;2.40;;;;;;;12.45;49.95;99916.20;1380932;90;20324;-80
2023/04/26 09:30:30;;;;;;;2.87;1.40;;;;;;;12.30;45.52;99919.56;1372778;90;21193;-81
2023/04/26 09:33:05;;;;;;;5.10;2.47;;;;;;;12.29;45.23;99930.36;1373485;90;21267;-81
2023/04/26 09:35:41;;;;;;;8.07;3.10;;;;;;;12.11;46.51;99927.91;1530125;90;21383;-81
2023/04/26 09:38:13;;;;;;;10.93;2.93;;;;;;;12.08;44.39;99922.94;1528534;88;21408;-80
2023/04/26 09:40:46;;;;;;;7.67;2.10;;;;;;;12.29;47.19;99921.90;1482641;89;21289;-80
2023/04/26 09:43:21;;;;;;;6.33;2.23;;;;;;;12.55;46.52;99928.27;1530026;89;21333;-81
2023/04/26 09:45:56;;;;;;;7.37;3.50;;;;;;;12.41;45.92;99923.68;1530363;89;21216;-80
2023/04/26 09:48:29;;;;;;;6.97;2.00;;;;;;;12.14;44.28;99925.77;1530695;89;22115;-81
2023/04/26 09:50:58;;;;;;;6.23;2.63;;;;;;;12.21;42.64;99920.59;1509243;90;21259;-78
2023/04/26 09:53:36;;;;;;;12.53;2.93;;;;;;;12.35;47.60;99916.41;1513211;89;21377;-79
2023/04/26 09:56:18;;;;;;;15.73;2.67;;;;;;;12.67;45.33;99938.51;1447740;90;21523;-80
2023/04/26 09:58:57;;;;;;;5.33;1.57;;;;;;;12.80;43.28;99924.16;1448142;89;21510;-81
2023/04/26 10:01:28;;;;;;;6.37;2.13;;;;;;;12.82;44.45;99935.44;1442721;89;21414;-79
2023/04/26 10:03:56;;;;;;;11.00;2.45;;;;;;;12.83;43.89;99933.09;1413696;89;21208;-80
2023/04/26 10:06:24;;;;;;;7.23;2.60;;;;;;;12.98;44.48;99935.36;1529229;90;21474;-81
2023/04/26 10:08:50;;;;;;;5.83;2.83;;;;;;;13.03;44.99;99936.14;1380302;89;21297;-81
2023/04/26 10:11:17;;;;;;;9.30;3.63;;;;;;;13.13;43.57;99939.92;1514984;90;21480;-81
2023/04/26 10:13:44;;;;;;;5.37;2.53;;;;;;;13.21;45.21;99935.88;1451534;89;21356;-80
2023/04/26 10:16:10;;;;;;;10.47;3.07;;;;;;;13.25;45.15;99934.03;1451642;89;22471;-80
2023/04/26 10:18:37;;;;;;;6.67;2.73;;;;;;;13.19;43.26;99940.03;1447018;89;21422;-80
2023/04/26 10:21:23;;;;;;;10.77;4.13;;;;;;;12.97;45.29;99936.84;1447225;89;21598;-80
2023/04/26 10:23:51;;;;;;;9.23;2.40;;;;;;;13.19;46.15;99932.06;1441697;90;22469;-79
2023/04/26 10:26:56;;;;;;;8.20;2.57;;;;;;;12.88;44.15;99936.89;1374406;89;21260;-79
2023/04/26 10:29:24;;;;;;;9.33;2.73;;;;;;;13.02;44.58;99941.95;1528188;89;21377;-80
2023/04/26 10:32:05;;;;;;;6.27;2.17;;;;;;;12.83;43.26;99938.41;1372667;89;21208;-81
2023/04/26 10:34:32;;;;;;;;;;;;;;;12.73;43.45;99937.81;1532965;89;21253;-80
2023/04/26 10:37:12;;;;;;;7.93;2.07;;;;;;;12.90;40.74;99935.91;1373908;90;20749;-81
2023/04/26 10:39:41;;;;;;;3.57;2.07;;;;;;;13.08;41.78;99936.45;1530583;89;21246;-81
2023/04/26 10:42:26;;;;;;;12.13;2.80;;;;;;;13.28;43.90;99935.52;1390007;89;22228;-81
2023/04/26 10:44:59;;;;;;;4.87;2.53;;;;;;;13.64;43.51;99934.92;1524569;89;21290;-81
2023/04/26 10:47:36;;;;;;;19.00;3.00;;;;;;;13.40;44.57;99940.73;1513477;90;21333;-80
2023/04/26 10:50:08;;;;;;;6.60;2.17;;;;;;;13.29;42.63;99929.19;1530081;89;22089;-79
2023/04/26 10:52:37;;;;;;;5.27;2.53;;;;;;;13.29;43.29;99928.71;1530236;89;21185;-80
2023/04/26 10:55:05;;;;;;;5.03;2.37;;;;;;;13.33;43.61;99929.17;1373127;89;21415;-80
2023/04/26 10:57:49;;;;;;;10.70;3.60;;;;;;;13.13;46.22;99935.42;1378993;89;21355;-80
2023/04/26 11:00:22;;;;;;;6.17;2.73;;;;;;;13.22;44.14;99926.89;1372294;89;21379;-80
2023/04/26 11:03:01;;;;;;;12.00;3.50;;;;;;;13.39;44.73;99929.79;1530809;89;21194;-81
2023/04/26 11:05:41;;;;;;;9.37;2.70;;;;;;;13.08;42.81;99937.27;1374073;89;21551;-82
2023/04/26 11:08:30;;;;;;;5.67;2.22;;;;;;;12.86;40.94;99939.42;1509609;90;21282;-80
2023/04/26 11:11:08;;;;;;;5.33;2.57;;;;;;;13.02;41.43;99937.97;1530569;89;21420;-80
2023/04/26 11:13:42;;;;;;;5.03;2.43;;;;;;;13.33;40.78;99935.82;1530593;89;21186;-81
2023/04/26 11:16:11;;;;;;;7.97;2.50;;;;;;;13.49;40.49;99937.03;1359632;91;21475;-79
2023/04/26 11:18:41;;;;;;;6.20;2.73;;;;;;;13.57;41.47;99939.29;1372185;89;22103;-79
2023/04/26 11:21:08;;;;;;;9.18;2.15;;;;;;;13.98;42.91;99932.61;1377638;89;21451;-80
2023/04/26 11:23:35;;;;;;;9.90;3.27;;;;;;;14.13;43.43;99942.44;1379621;89;21260;-81
2023/04/26 11:26:07;;;;;;;6.67;2.43;;;;;;;13.98;43.76;99944.58;1444342;90;22421;-80
2023/04/26 11:28:38;;;;;;;7.73;2.73;;;;;;;14.29;43.57;99942.75;1450683;90;21377;-79
2023/04/26 11:31:06;;;;;;;6.95;2.50;;;;;;;14.44;42.34;99942.23;1449792;90;21444;-82
2023/04/26 11:33:35;;;;;;;6.27;2.10;;;;;;;14.30;41.82;99947.05;1365872;91;21354;-80
2023/04/26 11:36:02;;;;;;;6.87;2.80;;;;;;;14.34;40.38;99941.19;1371626;90;21355;-80
2023/04/26 11:38:29;;;;;;;8.13;2.50;;;;;;;14.25;42.54;99947.62;1374376;90;21400;-80
2023/04/26 11:41:01;;;;;;;7.13;2.40;;;;;;;14.46;40.86;99946.88;1374842;90;21296;-81